Time;durP1;ratioP1;P1;durP2;ratioP2;P2;SDS_P1;SDS_P2;PMS_P1;PMS_P2;Temp;Humidity;BMP_temperature;BMP_pressure;BME280_temperature;BME280_humidity;BME280_pressure;Samples;Min_cycle;Max_cycle;Signal;HPM_P1;HPM_P2
2022/04/30 00:00:16;;;;;;;15.70;7.90;;;5.30;99.90;;;;;;4996985;28;20059;-82
2022/04/30 00:02:42;;;;;;;12.88;7.18;;;5.30;99.90;;;;;;4995761;28;20095;-82
2022/04/30 00:05:09;;;;;;;15.30;7.65;;;5.30;99.90;;;;;;5045325;28;20041;-82
2022/04/30 00:07:35;;;;;;;16.95;8.43;;;5.30;99.90;;;;;;5046824;28;20422;-82
2022/04/30 00:10:02;;;;;;;10.63;7.40;;;5.20;99.90;;;;;;5045575;28;20044;-82
2022/04/30 00:12:28;;;;;;;15.43;7.65;;;5.20;99.90;;;;;;5042410;28;20506;-83
2022/04/30 00:14:54;;;;;;;14.95;8.23;;;5.20;99.90;;;;;;5043633;28;20045;-82
2022/04/30 00:17:20;;;;;;;16.35;8.05;;;5.20;99.90;;;;;;4995859;28;20049;-82
2022/04/30 00:19:46;;;;;;;11.88;7.55;;;5.80;99.90;;;;;;5012733;28;20171;-82
2022/04/30 00:22:12;;;;;;;13.18;7.80;;;5.10;99.90;;;;;;5046805;28;20678;-82
2022/04/30 00:24:38;;;;;;;12.50;7.82;;;5.40;99.90;;;;;;5025196;28;20068;-82
2022/04/30 00:27:05;;;;;;;18.00;8.32;;;5.10;99.90;;;;;;5028005;28;20044;-82
2022/04/30 00:29:31;;;;;;;20.30;7.85;;;5.10;99.90;;;;;;5044470;28;20055;-82
2022/04/30 00:32:02;;;;;;;13.30;8.35;;;5.10;99.90;;;;;;5029474;28;20137;-82
2022/04/30 00:34:29;;;;;;;15.73;7.97;;;4.60;99.90;;;;;;5026356;28;20095;-82
2022/04/30 00:36:56;;;;;;;14.05;7.90;;;5.50;99.90;;;;;;5045124;28;20045;-80
2022/04/30 00:39:21;;;;;;;19.63;8.93;;;5.10;99.90;;;;;;5011469;28;20152;-80
2022/04/30 00:41:48;;;;;;;15.35;7.97;;;5.10;99.90;;;;;;5027137;28;20446;-82
2022/04/30 00:44:18;;;;;;;13.80;7.38;;;5.00;99.90;;;;;;5039710;28;20562;-82
2022/04/30 00:46:44;;;;;;;15.18;7.78;;;5.00;99.90;;;;;;5041240;28;20036;-82
2022/04/30 00:49:10;;;;;;;18.80;8.80;;;5.00;99.90;;;;;;5042088;28;20068;-82
2022/04/30 00:51:39;;;;;;;15.23;8.48;;;4.90;99.90;;;;;;5010620;28;20048;-82
2022/04/30 00:54:07;;;;;;;11.98;7.95;;;4.80;99.90;;;;;;5027331;28;20048;-82
2022/04/30 00:56:36;;;;;;;17.35;8.18;;;4.80;99.90;;;;;;5059295;28;20128;-82
2022/04/30 00:59:06;;;;;;;18.55;8.93;;;4.70;99.90;;;;;;5011903;28;20450;-83
2022/04/30 01:01:34;;;;;;;17.33;7.80;;;4.70;99.90;;;;;;5045182;28;20044;-82
2022/04/30 01:04:00;;;;;;;12.93;7.95;;;4.60;99.90;;;;;;5061532;28;20131;-82
2022/04/30 01:06:37;;;;;;;16.10;8.35;;;4.60;99.90;;;;;;5028413;28;20448;-82
2022/04/30 01:09:03;;;;;;;14.35;8.13;;;4.60;99.90;;;;;;5025293;28;20037;-82
2022/04/30 01:11:29;;;;;;;16.92;8.70;;;4.60;99.90;;;;;;5024208;28;20037;-82
2022/04/30 01:13:58;;;;;;;13.10;8.05;;;5.20;99.90;;;;;;5009955;28;20045;-82
2022/04/30 01:16:25;;;;;;;13.00;8.25;;;4.60;99.90;;;;;;5023620;28;20124;-82
2022/04/30 01:18:51;;;;;;;16.10;8.32;;;4.50;99.90;;;;;;5028205;28;20075;-82
2022/04/30 01:21:21;;;;;;;15.25;8.10;;;4.50;99.90;;;;;;5044270;28;20140;-82
2022/04/30 01:23:48;;;;;;;17.60;9.27;;;4.50;99.90;;;;;;5025976;28;20057;-82
2022/04/30 01:26:14;;;;;;;18.65;9.02;;;4.40;99.90;;;;;;5022990;28;20037;-82
2022/04/30 01:28:47;;;;;;;15.82;8.88;;;4.40;99.90;;;;;;5012531;28;20124;-82
2022/04/30 01:39:29;;;;;;;15.10;8.32;;;4.40;99.90;;;;;;5044495;28;20192;-82
2022/04/30 01:41:54;;;;;;;19.85;9.55;;;4.40;99.90;;;;;;5043563;28;20123;-82
2022/04/30 01:44:21;;;;;;;15.55;7.93;;;4.40;99.90;;;;;;5009087;28;21799;-82
2022/04/30 01:46:48;;;;;;;14.50;8.57;;;4.40;99.90;;;;;;5059379;28;20033;-82
2022/04/30 01:49:16;;;;;;;19.15;8.75;;;4.30;99.90;;;;;;5043892;28;20494;-82
2022/04/30 01:51:49;;;;;;;16.35;9.70;;;4.40;99.90;;;;;;5010897;28;20101;-82
2022/04/30 01:54:15;;;;;;;14.30;8.77;;;4.30;99.90;;;;;;5032569;28;20082;-82
2022/04/30 01:56:41;;;;;;;20.40;9.55;;;4.30;99.90;;;;;;5035502;28;20052;-81
2022/04/30 01:59:06;;;;;;;18.55;8.65;;;4.30;99.90;;;;;;5038258;28;20041;-81
2022/04/30 02:01:34;;;;;;;14.07;8.55;;;4.20;99.90;;;;;;5016866;28;20513;-82
2022/04/30 02:04:00;;;;;;;16.88;8.30;;;4.20;99.90;;;;;;5039685;28;20028;-81
2022/04/30 02:06:26;;;;;;;16.50;9.18;;;4.20;99.90;;;;;;5045581;28;20401;-82
2022/04/30 02:08:53;;;;;;;18.52;9.13;;;4.10;99.90;;;;;;5046073;28;20075;-81
2022/04/30 02:11:18;;;;;;;17.85;9.27;;;4.10;99.90;;;;;;5044063;28;20040;-82
2022/04/30 02:13:52;;;;;;;15.55;8.32;;;4.20;99.90;;;;;;5025295;28;20044;-82
2022/04/30 02:16:21;;;;;;;19.10;9.27;;;4.10;99.90;;;;;;5043437;28;20136;-81
2022/04/30 02:18:49;;;;;;;17.67;9.52;;;4.10;99.90;;;;;;5043016;28;20037;-82
2022/04/30 02:21:17;;;;;;;14.35;8.85;;;4.10;99.90;;;;;;5060413;28;20029;-82
2022/04/30 02:23:43;;;;;;;19.73;8.85;;;4.00;99.90;;;;;;5026341;28;20098;-82
2022/04/30 02:26:10;;;;;;;20.42;9.65;;;4.40;99.90;;;;;;5013155;28;20094;-82
2022/04/30 02:28:36;;;;;;;16.35;9.18;;;4.00;99.90;;;;;;5047885;28;20079;-82
2022/04/30 02:31:02;;;;;;;20.30;9.73;;;4.00;99.90;;;;;;4997403;28;20038;-82
2022/04/30 02:33:28;;;;;;;17.75;9.40;;;4.10;99.90;;;;;;5044749;28;20112;-82
2022/04/30 02:35:54;;;;;;;16.98;8.98;;;4.00;99.90;;;;;;5046972;28;20041;-82
2022/04/30 02:38:20;;;;;;;12.93;8.35;;;4.00;99.90;;;;;;5044892;28;20040;-82
2022/04/30 02:40:45;;;;;;;17.02;8.73;;;4.10;99.90;;;;;;5027704;28;20521;-82
2022/04/30 02:43:15;;;;;;;22.30;9.93;;;4.10;99.90;;;;;;5014851;28;20076;-82
2022/04/30 02:45:44;;;;;;;20.13;9.27;;;4.50;99.90;;;;;;5047067;28;20486;-82
2022/04/30 02:48:12;;;;;;;16.35;8.80;;;4.10;99.90;;;;;;5031692;28;20048;-82
2022/04/30 02:50:38;;;;;;;17.60;8.35;;;4.30;99.90;;;;;;5030252;28;20472;-81
2022/04/30 02:53:04;;;;;;;14.80;8.30;;;4.60;99.90;;;;;;5031001;28;20037;-82
2022/04/30 02:55:30;;;;;;;14.93;8.35;;;4.10;99.90;;;;;;5029602;28;20119;-82
2022/04/30 03:00:46;;;;;;;19.40;8.60;;;4.20;99.90;;;;;;5030708;28;20098;-82
2022/04/30 03:03:14;;;;;;;21.25;9.13;;;4.10;99.90;;;;;;5044916;28;20037;-82
2022/04/30 03:05:43;;;;;;;14.98;7.90;;;4.00;99.90;;;;;;5029453;28;20062;-82
2022/04/30 03:08:29;;;;;;;17.70;9.68;;;4.20;99.90;;;;;;5047925;28;20624;-82
2022/04/30 03:10:56;;;;;;;16.50;8.60;;;4.00;99.90;;;;;;5046267;28;20528;-82
2022/04/30 03:13:24;;;;;;;14.32;8.95;;;4.00;99.90;;;;;;5047708;28;20037;-82
2022/04/30 03:15:55;;;;;;;20.80;9.60;;;4.10;99.90;;;;;;5013172;28;20051;-81
2022/04/30 03:23:51;;;;;;;13.82;8.07;;;4.00;99.90;;;;;;5046302;28;20573;-82
2022/04/30 03:26:20;;;;;;;14.10;8.18;;;3.90;99.90;;;;;;5045861;28;20124;-82
2022/04/30 03:28:47;;;;;;;19.10;10.10;;;4.00;99.90;;;;;;5013987;28;20041;-82
2022/04/30 03:31:15;;;;;;;15.77;9.20;;;4.00;99.90;;;;;;5043507;28;20074;-82
2022/04/30 03:33:43;;;;;;;15.07;8.70;;;4.00;99.90;;;;;;5012425;28;20043;-82
2022/04/30 03:36:11;;;;;;;13.80;8.85;;;4.00;99.90;;;;;;5060639;28;20040;-82
2022/04/30 03:38:37;;;;;;;17.83;8.35;;;4.00;99.90;;;;;;5030090;28;20033;-82
2022/04/30 03:41:05;;;;;;;15.60;10.20;;;3.90;99.90;;;;;;5027582;28;20098;-82
2022/04/30 03:43:31;;;;;;;15.52;8.60;;;3.90;99.90;;;;;;5063771;28;20094;-82
2022/04/30 03:45:57;;;;;;;16.40;9.20;;;4.10;99.90;;;;;;5061018;28;20068;-82
2022/04/30 03:48:23;;;;;;;17.25;8.95;;;3.90;99.90;;;;;;5045180;28;20567;-82
2022/04/30 03:50:48;;;;;;;17.45;9.35;;;3.80;99.90;;;;;;5011559;28;20120;-82
2022/04/30 03:53:14;;;;;;;16.63;8.90;;;3.90;99.90;;;;;;5044564;28;20047;-81
2022/04/30 03:55:40;;;;;;;19.35;8.82;;;3.80;99.90;;;;;;5012872;28;20045;-81
2022/04/30 03:58:06;;;;;;;18.13;9.55;;;3.80;99.90;;;;;;5028197;28;20572;-82
2022/04/30 04:00:32;;;;;;;17.90;8.85;;;3.80;99.90;;;;;;5011997;28;20037;-82
2022/04/30 04:02:59;;;;;;;17.63;8.70;;;3.80;99.90;;;;;;5028015;28;20040;-82
2022/04/30 04:05:26;;;;;;;15.88;8.57;;;4.10;99.90;;;;;;5025829;28;20129;-82
2022/04/30 04:07:52;;;;;;;18.60;8.45;;;3.80;99.90;;;;;;5060522;28;20048;-82
2022/04/30 04:10:18;;;;;;;16.33;9.38;;;3.90;99.90;;;;;;5043861;28;20064;-82
2022/04/30 04:12:43;;;;;;;18.65;9.90;;;3.90;99.90;;;;;;5028447;28;20126;-82
2022/04/30 04:17:55;;;;;;;18.23;9.48;;;3.80;99.90;;;;;;5046342;28;20045;-82
2022/04/30 04:20:25;;;;;;;20.02;10.35;;;3.80;99.90;;;;;;5028270;28;20041;-82
2022/04/30 04:22:55;;;;;;;17.27;10.13;;;3.80;99.90;;;;;;5023697;28;20030;-82
2022/04/30 04:28:05;;;;;;;15.23;9.00;;;3.80;99.90;;;;;;5062915;28;20045;-82
2022/04/30 04:30:32;;;;;;;19.17;10.15;;;3.80;99.90;;;;;;5043935;28;20036;-82
2022/04/30 04:32:59;;;;;;;22.40;9.52;;;3.80;99.90;;;;;;5049176;28;20079;-82
2022/04/30 04:35:26;;;;;;;20.92;10.90;;;3.80;99.90;;;;;;5015746;28;20033;-82
2022/04/30 04:37:52;;;;;;;24.40;11.75;;;3.80;99.90;;;;;;5033212;28;20048;-82
2022/04/30 04:40:18;;;;;;;19.88;10.82;;;4.50;99.90;;;;;;5048442;28;20064;-82
2022/04/30 04:42:48;;;;;;;24.73;11.73;;;3.80;99.90;;;;;;5033387;28;20037;-82
2022/04/30 04:45:14;;;;;;;18.45;10.98;;;3.80;99.90;;;;;;5031255;28;20044;-82
2022/04/30 04:47:42;;;;;;;24.70;11.30;;;3.90;99.90;;;;;;5049658;28;20048;-82
2022/04/30 04:50:13;;;;;;;19.98;10.60;;;3.90;99.90;;;;;;5014802;28;20090;-82
2022/04/30 04:52:42;;;;;;;16.60;10.38;;;4.00;99.90;;;;;;5033270;28;20045;-82
2022/04/30 04:55:09;;;;;;;22.60;11.15;;;4.50;99.90;;;;;;5015466;28;20083;-82
2022/04/30 04:57:35;;;;;;;16.95;10.65;;;4.10;99.90;;;;;;5014029;28;20601;-82
2022/04/30 05:00:02;;;;;;;16.80;9.57;;;4.20;99.90;;;;;;5036654;28;20525;-82
2022/04/30 05:02:28;;;;;;;18.17;10.45;;;4.30;99.90;;;;;;5028830;28;20040;-82
2022/04/30 05:04:53;;;;;;;14.95;9.00;;;4.40;99.90;;;;;;5048242;28;20028;-82
2022/04/30 05:07:19;;;;;;;15.38;9.02;;;4.50;99.90;;;;;;5018788;28;20072;-82
2022/04/30 05:09:45;;;;;;;20.08;9.25;;;4.60;99.90;;;;;;5047900;28;20108;-82
2022/04/30 05:12:11;;;;;;;15.43;8.48;;;4.70;99.90;;;;;;5031915;28;20406;-82
2022/04/30 05:14:36;;;;;;;13.63;9.10;;;4.70;99.90;;;;;;5013426;28;20072;-82
2022/04/30 05:17:04;;;;;;;22.30;9.38;;;4.80;99.90;;;;;;5041020;28;20155;-82
2022/04/30 05:19:30;;;;;;;18.40;9.30;;;4.90;99.90;;;;;;5049344;28;20470;-82
2022/04/30 05:21:56;;;;;;;15.00;9.40;;;5.00;99.90;;;;;;5033265;28;20033;-82
2022/04/30 05:24:21;;;;;;;17.80;8.80;;;5.10;99.90;;;;;;5030365;28;20617;-82
2022/04/30 05:26:47;;;;;;;15.05;8.38;;;5.10;99.90;;;;;;5029675;28;20045;-82
2022/04/30 05:29:14;;;;;;;16.38;8.73;;;5.20;99.90;;;;;;5042421;28;20080;-82
2022/04/30 05:31:39;;;;;;;15.45;8.68;;;5.30;99.90;;;;;;5011405;28;20057;-82
2022/04/30 05:34:05;;;;;;;14.43;9.02;;;5.30;99.90;;;;;;5040351;28;20151;-82
2022/04/30 05:36:31;;;;;;;12.13;8.18;;;5.40;99.90;;;;;;5032194;28;20098;-82
2022/04/30 05:38:57;;;;;;;16.08;9.98;;;5.90;99.90;;;;;;5032448;28;20037;-80
2022/04/30 05:41:22;;;;;;;16.00;8.55;;;5.40;99.90;;;;;;5012412;28;20045;-80
2022/04/30 05:43:48;;;;;;;15.68;8.80;;;5.50;99.90;;;;;;5028588;28;20073;-82
2022/04/30 05:46:14;;;;;;;14.55;9.35;;;5.60;99.90;;;;;;5030937;28;20063;-82
2022/04/30 05:48:40;;;;;;;11.27;7.78;;;5.60;99.90;;;;;;5032277;28;20060;-82
2022/04/30 05:51:05;;;;;;;16.15;8.95;;;5.70;99.90;;;;;;5029643;28;20123;-82
2022/04/30 05:53:31;;;;;;;12.73;8.93;;;5.70;99.90;;;;;;5030759;28;20093;-82
2022/04/30 05:55:57;;;;;;;15.23;8.73;;;5.80;99.90;;;;;;5050220;28;20658;-80
2022/04/30 05:58:23;;;;;;;18.33;9.38;;;5.90;99.90;;;;;;5033553;28;20101;-79
2022/04/30 06:00:49;;;;;;;17.25;8.07;;;6.00;99.90;;;;;;5036363;28;20167;-80
2022/04/30 06:03:14;;;;;;;15.00;8.45;;;6.10;99.90;;;;;;5017123;28;20103;-80
2022/04/30 06:05:41;;;;;;;14.95;7.65;;;6.20;99.90;;;;;;5044720;28;20127;-80
2022/04/30 06:08:07;;;;;;;17.08;8.68;;;6.30;99.90;;;;;;5017474;28;20130;-80
2022/04/30 06:10:33;;;;;;;13.38;8.25;;;6.40;99.90;;;;;;5020421;28;20064;-81
2022/04/30 06:12:59;;;;;;;10.30;7.65;;;6.50;99.90;;;;;;5048975;28;20131;-80
2022/04/30 06:15:25;;;;;;;12.80;7.45;;;6.80;99.90;;;;;;5036426;28;20565;-80
2022/04/30 06:17:51;;;;;;;13.13;8.40;;;6.70;99.90;;;;;;5026613;28;20047;-80
2022/04/30 06:20:16;;;;;;;12.75;8.15;;;6.80;99.90;;;;;;5006947;28;20390;-81
2022/04/30 06:22:42;;;;;;;12.32;7.70;;;6.90;99.90;;;;;;5015445;28;20212;-80
2022/04/30 06:25:08;;;;;;;11.07;7.38;;;7.10;99.90;;;;;;5014660;28;20039;-80
2022/04/30 06:27:34;;;;;;;13.15;7.93;;;7.00;99.90;;;;;;5053365;28;20053;-81
2022/04/30 06:30:00;;;;;;;15.55;7.68;;;7.10;99.90;;;;;;5040314;28;20063;-81
2022/04/30 06:32:27;;;;;;;14.05;8.30;;;7.10;99.90;;;;;;4998714;28;20106;-82
2022/04/30 06:34:53;;;;;;;15.15;8.25;;;7.10;99.90;;;;;;5045607;28;20041;-82
2022/04/30 06:37:19;;;;;;;13.77;8.10;;;7.30;99.90;;;;;;5032580;28;20040;-81
2022/04/30 06:39:45;;;;;;;13.43;7.93;;;7.30;99.90;;;;;;5031943;28;20490;-80
2022/04/30 06:42:11;;;;;;;12.48;7.95;;;7.40;99.90;;;;;;5030829;28;20037;-82
2022/04/30 06:44:37;;;;;;;11.15;8.02;;;7.40;99.90;;;;;;5030749;28;20072;-82
2022/04/30 06:47:03;;;;;;;14.30;9.07;;;7.50;99.90;;;;;;5030052;28;20128;-82
2022/04/30 06:49:29;;;;;;;12.70;7.60;;;7.70;99.90;;;;;;5031019;28;20105;-82
2022/04/30 06:51:54;;;;;;;13.77;7.97;;;7.80;99.90;;;;;;5028171;28;20490;-83
2022/04/30 06:57:08;;;;;;;12.30;8.18;;;8.10;99.90;;;;;;5019550;28;20079;-82
2022/04/30 06:59:40;;;;;;;13.68;7.55;;;8.20;99.90;;;;;;5031075;28;20045;-81
2022/04/30 07:02:12;;;;;;;12.93;7.68;;;8.40;99.90;;;;;;5031307;28;20079;-81
2022/04/30 07:04:42;;;;;;;9.60;7.33;;;8.60;99.90;;;;;;5030694;28;20037;-81
2022/04/30 07:07:08;;;;;;;19.08;8.32;;;8.80;99.90;;;;;;5001741;28;20300;-81
2022/04/30 07:09:34;;;;;;;11.70;7.28;;;8.90;99.90;;;;;;5043678;28;20049;-81
2022/04/30 07:12:06;;;;;;;9.65;6.43;;;9.10;99.90;;;;;;5044207;28;20041;-82
2022/04/30 07:14:40;;;;;;;7.10;4.97;;;9.30;99.90;;;;;;5049560;28;20103;-81
2022/04/30 07:17:13;;;;;;;9.55;5.15;;;9.70;99.90;;;;;;5050220;28;20049;-81
2022/04/30 07:19:39;;;;;;;11.75;5.40;;;10.40;99.90;;;;;;5050936;28;20402;-79
2022/04/30 07:22:07;;;;;;;12.60;5.70;;;10.90;99.90;;;;;;5034541;28;20071;-80
2022/04/30 07:24:34;;;;;;;9.02;5.93;;;11.40;99.90;;;;;;5051185;28;20383;-81
2022/04/30 07:27:08;;;;;;;9.23;5.53;;;11.60;99.90;;;;;;5050588;28;20128;-80
2022/04/30 07:29:35;;;;;;;10.88;5.32;;;11.80;99.90;;;;;;5036299;28;20044;-80
2022/04/30 07:32:01;;;;;;;7.78;5.20;;;11.90;99.90;;;;;;5022478;28;20128;-81
2022/04/30 07:34:27;;;;;;;7.72;5.75;;;12.30;99.90;;;;;;5043363;28;20687;-80
2022/04/30 07:36:53;;;;;;;9.20;5.03;;;12.80;99.90;;;;;;5023444;28;20463;-80
2022/04/30 07:39:19;;;;;;;7.47;4.55;;;13.20;99.90;;;;;;5051099;28;20071;-79
2022/04/30 07:41:45;;;;;;;8.65;5.03;;;13.20;99.90;;;;;;5047893;28;20064;-80
2022/04/30 07:44:10;;;;;;;9.70;5.78;;;12.80;99.90;;;;;;5032010;28;20037;-80
2022/04/30 07:46:37;;;;;;;7.32;4.45;;;12.20;99.90;;;;;;5017062;28;20394;-80
2022/04/30 07:49:05;;;;;;;7.93;4.90;;;11.90;99.90;;;;;;5034403;28;21398;-81
2022/04/30 07:51:34;;;;;;;12.07;5.25;;;11.60;99.90;;;;;;5019044;28;20095;-81
2022/04/30 07:54:01;;;;;;;9.77;5.13;;;11.50;99.90;;;;;;5034060;28;20068;-81
2022/04/30 07:56:27;;;;;;;6.15;4.93;;;11.40;99.90;;;;;;5037170;28;20044;-82
2022/04/30 07:58:53;;;;;;;8.75;5.80;;;11.40;99.90;;;;;;5049043;28;20108;-82
2022/04/30 08:01:18;;;;;;;10.35;5.47;;;11.30;99.90;;;;;;5034052;28;20037;-81
2022/04/30 08:03:44;;;;;;;9.60;4.97;;;11.40;99.90;;;;;;5050717;28;20029;-81
2022/04/30 08:06:10;;;;;;;9.35;4.57;;;11.40;99.90;;;;;;5001294;28;20506;-81
2022/04/30 08:08:36;;;;;;;12.40;5.60;;;11.40;99.90;;;;;;5033023;28;20029;-81
2022/04/30 08:11:02;;;;;;;10.70;5.05;;;11.50;99.90;;;;;;5033009;28;20047;-80
2022/04/30 08:13:27;;;;;;;6.97;4.38;;;11.70;99.90;;;;;;5048871;28;20472;-82
2022/04/30 08:15:53;;;;;;;7.82;4.22;;;12.30;99.90;;;;;;5024596;28;20331;-86
2022/04/30 08:18:19;;;;;;;8.13;4.18;;;12.90;99.90;;;;;;5040393;28;20036;-85
2022/04/30 08:20:46;;;;;;;7.72;4.40;;;13.10;99.90;;;;;;5023876;28;20049;-85
2022/04/30 08:23:13;;;;;;;6.30;4.82;;;12.90;99.90;;;;;;5010475;28;20037;-85
2022/04/30 08:25:39;;;;;;;7.90;4.30;;;12.70;99.90;;;;;;5008556;28;20041;-85
2022/04/30 08:28:05;;;;;;;4.50;4.03;;;12.60;99.90;;;;;;5022964;28;20096;-84
2022/04/30 08:30:32;;;;;;;7.28;4.68;;;12.80;99.90;;;;;;5038801;28;20033;-85
2022/04/30 08:32:58;;;;;;;9.63;4.47;;;12.90;99.90;;;;;;5022852;28;20029;-85
2022/04/30 08:35:24;;;;;;;7.28;4.63;;;13.00;99.90;;;;;;5021437;28;20037;-85
2022/04/30 08:37:49;;;;;;;12.77;4.53;;;12.90;99.90;;;;;;5037228;28;20083;-86
2022/04/30 08:40:16;;;;;;;8.10;4.15;;;12.80;99.90;;;;;;5037299;28;20045;-86
2022/04/30 08:42:42;;;;;;;6.07;4.93;;;12.60;99.90;;;;;;5005207;28;20064;-85
2022/04/30 08:45:09;;;;;;;6.38;3.95;;;12.40;99.90;;;;;;5006555;28;20074;-86
2022/04/30 08:47:40;;;;;;;10.32;5.82;;;12.40;99.90;;;;;;5021922;28;20037;-86
2022/04/30 08:50:10;;;;;;;8.07;5.07;;;12.10;99.90;;;;;;5039317;28;20575;-86
2022/04/30 08:52:36;;;;;;;7.75;5.20;;;11.90;99.90;;;;;;5058036;28;20043;-86
2022/04/30 08:55:03;;;;;;;9.18;4.97;;;11.50;99.90;;;;;;5024584;28;20439;-85
2022/04/30 08:57:28;;;;;;;8.10;5.55;;;11.40;99.90;;;;;;5039675;28;20126;-85
2022/04/30 08:59:55;;;;;;;7.55;5.22;;;11.20;99.90;;;;;;4989064;28;20597;-87
2022/04/30 09:02:21;;;;;;;8.57;5.00;;;11.20;99.90;;;;;;5035735;28;20047;-84
2022/04/30 09:04:48;;;;;;;7.65;5.00;;;11.20;99.90;;;;;;5037066;28;20056;-85
2022/04/30 09:07:16;;;;;;;7.95;5.50;;;11.20;99.90;;;;;;5021390;28;20576;-88
2022/04/30 09:09:43;;;;;;;9.43;4.70;;;11.20;99.90;;;;;;5021521;28;20055;-84
2022/04/30 09:12:11;;;;;;;8.07;4.93;;;11.20;99.90;;;;;;5021264;28;20036;-88
2022/04/30 09:14:47;;;;;;;12.43;5.10;;;11.40;99.90;;;;;;5021516;28;20409;-88
2022/04/30 09:17:15;;;;;;;10.95;5.05;;;11.60;99.90;;;;;;5034765;28;20127;-86
2022/04/30 09:19:54;;;;;;;14.02;5.05;;;11.70;99.90;;;;;;5037148;28;20032;-86
2022/04/30 09:22:31;;;;;;;8.88;4.93;;;11.90;99.90;;;;;;5038889;28;20104;-86
2022/04/30 09:24:58;;;;;;;8.02;4.93;;;11.80;99.90;;;;;;5038489;28;20174;-86
2022/04/30 09:27:25;;;;;;;9.30;4.50;;;11.80;99.90;;;;;;5019788;28;20082;-85
2022/04/30 09:29:51;;;;;;;7.63;4.60;;;11.80;99.90;;;;;;5021128;28;20044;-85
2022/04/30 09:32:18;;;;;;;11.55;4.93;;;11.90;99.90;;;;;;5030203;28;20082;-83
2022/04/30 09:37:43;;;;;;;7.53;5.00;;;11.90;99.90;;;;;;5006299;28;20095;-85
2022/04/30 09:40:12;;;;;;;8.40;4.60;;;12.00;99.90;;;;;;5027280;28;20065;-82
2022/04/30 09:42:38;;;;;;;8.20;5.15;;;12.00;99.90;;;;;;5043225;28;20044;-83
2022/04/30 09:45:06;;;;;;;10.07;4.07;;;12.10;99.90;;;;;;5042875;28;20048;-82
2022/04/30 09:47:33;;;;;;;7.90;3.97;;;12.20;99.90;;;;;;5005578;28;20746;-82
2022/04/30 09:55:34;;;;;;;6.82;4.80;;;12.40;99.90;;;;;;5046369;28;20037;-82
2022/04/30 09:58:04;;;;;;;6.68;4.70;;;12.50;99.90;;;;;;5024247;28;20045;-83
2022/04/30 10:00:33;;;;;;;8.18;4.70;;;12.80;99.90;;;;;;5037804;28;20663;-83
2022/04/30 10:03:02;;;;;;;5.60;4.35;;;13.20;99.90;;;;;;5065092;28;20444;-83
2022/04/30 10:05:35;;;;;;;10.70;5.13;;;13.50;98.50;;;;;;5045580;28;20044;-83
2022/04/30 10:08:02;;;;;;;8.18;4.22;;;13.60;98.80;;;;;;5042321;28;20045;-83
2022/04/30 10:10:42;;;;;;;7.55;4.15;;;13.80;98.10;;;;;;5030396;28;20045;-82
2022/04/30 10:13:21;;;;;;;6.10;3.67;;;14.50;97.20;;;;;;5044454;28;20045;-83
2022/04/30 10:15:57;;;;;;;4.85;3.50;;;14.90;95.90;;;;;;5056542;28;20032;-83
2022/04/30 10:18:41;;;;;;;6.65;3.90;;;15.40;94.90;;;;;;5034344;28;20143;-83
2022/04/30 10:21:17;;;;;;;5.60;3.75;;;15.80;93.80;;;;;;5027306;28;20494;-83
2022/04/30 10:23:43;;;;;;;5.03;3.55;;;16.00;93.40;;;;;;5015500;28;20517;-83
2022/04/30 10:26:08;;;;;;;8.00;4.40;;;16.30;93.50;;;;;;5050978;28;20037;-83
2022/04/30 10:28:34;;;;;;;7.90;4.35;;;16.40;92.10;;;;;;5055442;28;20090;-83
2022/04/30 10:31:05;;;;;;;5.18;4.03;;;16.40;92.80;;;;;;5018603;28;20124;-82
2022/04/30 10:33:32;;;;;;;6.28;3.97;;;16.50;91.80;;;;;;5034705;28;20123;-83
2022/04/30 10:36:06;;;;;;;5.43;3.85;;;16.60;92.00;;;;;;5016111;28;20055;-83
2022/04/30 10:38:32;;;;;;;5.30;3.58;;;16.30;90.80;;;;;;4998753;28;20072;-83
2022/04/30 10:41:00;;;;;;;7.30;4.25;;;15.90;90.40;;;;;;5014930;28;20033;-83
2022/04/30 10:43:34;;;;;;;7.13;3.92;;;15.70;91.30;;;;;;5046652;28;20072;-83
2022/04/30 10:46:00;;;;;;;5.55;4.15;;;15.20;90.30;;;;;;5047769;28;20041;-83
2022/04/30 10:48:26;;;;;;;7.57;4.22;;;14.80;91.40;;;;;;5029031;28;20045;-83
2022/04/30 10:51:05;;;;;;;6.28;4.10;;;14.60;91.40;;;;;;5035216;28;20048;-83
2022/04/30 10:53:32;;;;;;;5.43;3.63;;;14.40;90.90;;;;;;5053939;28;20033;-83
2022/04/30 10:55:59;;;;;;;6.38;4.13;;;14.40;92.30;;;;;;5053368;28;20044;-83
2022/04/30 10:58:25;;;;;;;6.90;4.38;;;14.30;92.40;;;;;;5035442;28;20068;-83
2022/04/30 11:00:51;;;;;;;8.38;4.20;;;14.30;92.80;;;;;;5020164;28;20051;-83
2022/04/30 11:03:18;;;;;;;6.80;3.90;;;14.40;93.20;;;;;;5033452;28;20025;-83
2022/04/30 11:05:48;;;;;;;7.60;4.10;;;14.30;92.80;;;;;;5046617;28;20041;-83
2022/04/30 11:08:14;;;;;;;9.45;4.22;;;14.40;92.70;;;;;;5020037;28;20398;-83
2022/04/30 11:10:55;;;;;;;6.07;4.72;;;14.60;93.20;;;;;;5035623;28;20049;-83
2022/04/30 11:13:21;;;;;;;5.22;4.30;;;14.60;91.90;;;;;;5051993;28;20055;-83
2022/04/30 11:15:47;;;;;;;5.53;3.88;;;15.00;92.90;;;;;;5036362;28;20095;-83
2022/04/30 11:18:18;;;;;;;5.68;4.28;;;15.50;92.40;;;;;;5051363;28;20067;-83
2022/04/30 11:20:44;;;;;;;8.15;4.40;;;15.80;92.40;;;;;;5036489;28;20129;-83
2022/04/30 11:23:23;;;;;;;9.55;4.30;;;15.90;91.60;;;;;;5029503;28;20097;-83
2022/04/30 11:25:49;;;;;;;5.80;4.50;;;16.10;91.20;;;;;;5020577;28;20060;-81
2022/04/30 11:28:15;;;;;;;6.40;4.55;;;16.00;91.00;;;;;;5036461;28;20049;-84
2022/04/30 11:30:43;;;;;;;8.02;4.68;;;15.90;91.40;;;;;;5051795;28;20449;-84
2022/04/30 11:33:11;;;;;;;9.15;5.25;;;16.00;91.80;;;;;;5034808;28;20045;-81
2022/04/30 11:35:36;;;;;;;5.93;4.30;;;16.10;91.30;;;;;;5052707;28;20091;-82
2022/04/30 11:38:10;;;;;;;6.95;4.35;;;16.10;91.60;;;;;;5017583;28;20037;-82
2022/04/30 11:40:41;;;;;;;6.90;4.78;;;16.40;91.50;;;;;;5051177;28;20029;-82
2022/04/30 11:43:07;;;;;;;7.13;4.28;;;16.70;91.20;;;;;;5050526;28;20071;-82
2022/04/30 11:45:32;;;;;;;6.07;4.68;;;16.90;91.00;;;;;;5017630;28;20045;-82
2022/04/30 11:47:59;;;;;;;14.00;5.20;;;17.10;90.30;;;;;;5043261;28;20041;-82
2022/04/30 11:50:26;;;;;;;7.18;4.57;;;17.00;90.00;;;;;;5050946;28;20045;-82
2022/04/30 11:52:53;;;;;;;7.57;4.30;;;17.00;89.40;;;;;;5050218;28;20494;-83
2022/04/30 11:55:22;;;;;;;6.10;4.50;;;17.20;89.00;;;;;;5033324;28;20086;-83
2022/04/30 11:57:49;;;;;;;5.78;4.05;;;17.50;87.90;;;;;;5049617;28;20060;-82
2022/04/30 12:00:18;;;;;;;6.22;3.90;;;17.60;87.50;;;;;;5042941;28;20046;-83
2022/04/30 12:02:49;;;;;;;6.97;4.25;;;17.60;86.00;;;;;;5049186;28;20072;-82
2022/04/30 12:05:15;;;;;;;5.97;3.78;;;17.70;86.40;;;;;;5048394;28;20029;-83
2022/04/30 12:07:45;;;;;;;6.80;3.70;;;17.90;84.50;;;;;;5050983;28;20028;-83
2022/04/30 12:10:26;;;;;;;6.28;3.63;;;18.00;83.50;;;;;;5034096;28;20040;-83
2022/04/30 12:12:52;;;;;;;11.20;3.90;;;18.20;79.90;;;;;;5050241;28;20048;-83
2022/04/30 12:15:23;;;;;;;7.25;3.60;;;18.10;81.00;;;;;;5050785;28;20041;-82
2022/04/30 12:26:13;;;;;;;5.13;3.30;;;17.50;78.20;;;;;;5049624;28;20052;-82
2022/04/30 12:28:57;;;;;;;6.38;3.45;;;17.00;78.50;;;;;;5047861;28;20045;-83
2022/04/30 12:31:23;;;;;;;9.93;3.45;;;16.80;77.30;;;;;;5046777;28;20053;-82
2022/04/30 12:33:50;;;;;;;6.03;3.47;;;16.10;76.40;;;;;;5042883;28;20045;-82
2022/04/30 12:36:17;;;;;;;4.93;2.95;;;15.80;77.90;;;;;;5047397;28;20052;-82
2022/04/30 12:38:56;;;;;;;5.53;3.03;;;15.60;76.30;;;;;;5048764;28;20422;-82
2022/04/30 12:41:23;;;;;;;4.93;3.35;;;15.40;76.60;;;;;;5049617;28;20075;-82
2022/04/30 12:43:49;;;;;;;5.75;3.17;;;15.20;78.80;;;;;;5051306;28;20540;-82
2022/04/30 12:46:20;;;;;;;6.57;3.28;;;15.10;79.50;;;;;;5051564;28;20097;-82
2022/04/30 12:48:45;;;;;;;6.50;3.13;;;15.00;79.80;;;;;;5051130;28;20045;-82
2022/04/30 12:51:11;;;;;;;5.88;3.25;;;15.10;80.30;;;;;;5049360;28;20040;-82
2022/04/30 12:53:37;;;;;;;5.68;4.10;;;14.90;79.10;;;;;;5050436;28;20118;-82
2022/04/30 12:56:03;;;;;;;4.13;2.70;;;14.90;79.90;;;;;;5049413;28;20094;-82
2022/04/30 12:58:28;;;;;;;4.95;3.15;;;15.00;79.80;;;;;;5048981;28;20049;-82
2022/04/30 13:00:54;;;;;;;3.42;3.13;;;15.00;80.30;;;;;;5050193;28;20068;-82
2022/04/30 13:03:20;;;;;;;5.20;3.30;;;15.00;80.20;;;;;;5034184;28;20409;-82
2022/04/30 13:05:46;;;;;;;6.70;3.92;;;15.00;80.10;;;;;;5050865;28;20124;-82
2022/04/30 13:08:12;;;;;;;4.93;3.70;;;14.90;80.10;;;;;;5052882;28;20116;-82
2022/04/30 13:13:40;;;;;;;6.00;3.42;;;14.50;80.40;;;;;;5065713;28;20052;-83
2022/04/30 13:16:09;;;;;;;8.88;3.80;;;14.40;80.90;;;;;;5054002;28;20087;-82
2022/04/30 13:18:35;;;;;;;5.78;3.80;;;14.30;80.90;;;;;;5054012;28;20573;-82
2022/04/30 13:21:03;;;;;;;4.40;3.67;;;14.20;81.40;;;;;;5052427;28;20083;-82
2022/04/30 13:23:29;;;;;;;5.03;4.00;;;14.00;82.00;;;;;;5051970;28;20044;-82
2022/04/30 13:25:55;;;;;;;6.85;4.95;;;13.90;84.30;;;;;;5052096;28;20041;-82
2022/04/30 13:28:21;;;;;;;8.30;4.38;;;13.80;85.10;;;;;;5050940;28;20040;-82
2022/04/30 13:30:47;;;;;;;7.07;4.50;;;13.60;85.70;;;;;;5050538;28;20043;-82